createdAt,value
2022-08-17T00:02:26.069Z,98616.38
2022-08-17T00:04:55.507Z,98620.53
2022-08-17T00:07:24.402Z,98622.22
2022-08-17T00:09:51.966Z,98628.75
2022-08-17T00:12:41.715Z,98633.47
2022-08-17T00:15:10.756Z,98633.78
2022-08-17T00:17:38.806Z,98627.91
2022-08-17T00:20:07.099Z,98622.03
2022-08-17T00:22:36.912Z,98630.06
2022-08-17T00:25:07.914Z,98626.72
2022-08-17T00:27:35.529Z,98627.03
2022-08-17T00:30:03.244Z,98625.38
2022-08-17T00:33:15.647Z,98627.22
2022-08-17T00:35:27.753Z,98632.56
2022-08-17T00:37:56.617Z,98626.56
2022-08-17T00:40:24.808Z,98619.81
2022-08-17T00:42:53.586Z,98622.13
2022-08-17T00:45:23.075Z,98627.81
2022-08-17T00:47:50.610Z,98629.50
2022-08-17T00:50:19.864Z,98636.00
2022-08-17T00:52:54.768Z,98627.78
2022-08-17T00:55:26.124Z,98633.47
2022-08-17T00:57:58.449Z,98630.97
2022-08-17T01:00:29.567Z,98622.22
2022-08-17T01:03:01.061Z,98627.75
2022-08-17T01:05:31.772Z,98632.09
2022-08-17T01:08:01.136Z,98623.56
2022-08-17T01:10:58.765Z,98619.22
2022-08-17T01:13:28.604Z,98622.22
2022-08-17T01:16:00.060Z,98621.19
2022-08-17T01:18:28.301Z,98628.41
2022-08-17T01:20:58.544Z,98629.09
2022-08-17T01:23:28.807Z,98633.94
2022-08-17T01:25:58.898Z,98629.75
2022-08-17T01:28:33.656Z,98626.03
2022-08-17T01:31:16.315Z,98630.88
2022-08-17T01:33:43.898Z,98629.50
2022-08-17T01:36:11.375Z,98624.13
2022-08-17T01:38:40.662Z,98625.16
2022-08-17T01:41:12.729Z,98634.34
2022-08-17T01:43:45.272Z,98630.97
2022-08-17T01:46:16.630Z,98627.16
2022-08-17T01:48:47.305Z,98633.50
2022-08-17T01:51:16.553Z,98631.47
2022-08-17T01:53:50.024Z,98624.56
2022-08-17T01:56:20.710Z,98627.19
2022-08-17T01:58:48.620Z,98626.66
2022-08-17T02:01:17.791Z,98618.78
2022-08-17T02:03:59.294Z,98634.97
2022-08-17T02:06:30.156Z,98636.13
2022-08-17T02:09:02.850Z,98629.59
2022-08-17T02:11:32.909Z,98637.63
2022-08-17T02:14:03.704Z,98636.91
2022-08-17T02:16:37.470Z,98637.91
2022-08-17T02:19:06.776Z,98637.06
2022-08-17T02:21:34.409Z,98630.22
2022-08-17T02:24:04.229Z,98637.72
2022-08-17T02:26:31.806Z,98629.00
2022-08-17T02:28:59.364Z,98630.84
2022-08-17T02:31:26.886Z,98614.47
2022-08-17T02:34:00.594Z,98621.31
2022-08-17T02:36:32.231Z,98614.00
2022-08-17T02:39:00.710Z,98618.34
2022-08-17T02:41:29.531Z,98617.47
2022-08-17T02:43:57.126Z,98614.25
2022-08-17T02:46:24.872Z,98609.22
2022-08-17T02:48:52.348Z,98611.75
2022-08-17T02:51:20.026Z,98611.59
2022-08-17T02:53:47.709Z,98613.25
2022-08-17T02:56:15.234Z,98612.41
2022-08-17T02:58:44.219Z,98611.59
2022-08-17T03:01:12.671Z,98610.75
2022-08-17T03:03:40.780Z,98608.06
2022-08-17T03:06:09.070Z,98609.91
2022-08-17T03:08:38.041Z,98611.75
2022-08-17T03:11:06.010Z,98617.56
2022-08-17T03:13:34.041Z,98608.66
2022-08-17T03:16:03.077Z,98607.28
2022-08-17T03:18:30.628Z,98606.59
2022-08-17T03:21:00.548Z,98601.41
2022-08-17T03:23:29.544Z,98602.09
2022-08-17T03:25:58.823Z,98598.56
2022-08-17T03:28:28.163Z,98610.09
2022-08-17T03:30:55.814Z,98601.41
2022-08-17T03:33:24.617Z,98604.22
2022-08-17T03:35:52.602Z,98608.88
2022-08-17T03:38:20.319Z,98610.06
2022-08-17T03:40:58.554Z,98605.53
2022-08-17T03:43:29.177Z,98618.22
2022-08-17T03:46:34.660Z,98618.38
2022-08-17T03:49:23.632Z,98612.19
2022-08-17T03:52:08.979Z,98615.41
2022-08-17T03:54:54.332Z,98614.25
2022-08-17T03:57:21.980Z,98610.72
2022-08-17T03:59:49.603Z,98609.88
2022-08-17T04:02:22.198Z,98609.88
2022-08-17T04:04:52.416Z,98610.56
2022-08-17T04:07:20.392Z,98609.44
2022-08-17T04:09:47.990Z,98609.09
2022-08-17T04:12:16.257Z,98607.66
2022-08-17T04:14:53.540Z,98608.84
2022-08-17T04:17:24.867Z,98611.41
2022-08-17T04:19:54.759Z,98598.94
2022-08-17T04:22:32.978Z,98604.00
2022-08-17T04:25:06.904Z,98607.66
2022-08-17T04:27:34.528Z,98608.53
2022-08-17T04:30:02.137Z,98610.44
2022-08-17T04:33:03.393Z,98608.50
2022-08-17T04:35:23.295Z,98608.22
2022-08-17T04:37:51.657Z,98619.19
2022-08-17T04:40:38.361Z,98625.94
2022-08-17T04:43:08.659Z,98619.94
2022-08-17T04:45:40.487Z,98619.03
2022-08-17T04:48:23.423Z,98624.38
2022-08-17T04:51:00.058Z,98624.34
2022-08-17T04:53:28.136Z,98624.84
2022-08-17T04:55:57.663Z,98631.09
2022-08-17T04:58:25.464Z,98636.63
2022-08-17T05:00:53.093Z,98641.50
2022-08-17T05:03:20.811Z,98638.16
2022-08-17T05:05:49.660Z,98644.03
2022-08-17T05:08:20.693Z,98648.03
2022-08-17T05:10:49.704Z,98643.16
2022-08-17T05:13:19.179Z,98651.69
2022-08-17T05:15:48.361Z,98650.88
2022-08-17T05:18:16.487Z,98643.78
2022-08-17T05:20:45.465Z,98644.78
2022-08-17T05:23:17.670Z,98653.63
2022-08-17T05:25:48.786Z,98651.81
2022-08-17T05:28:23.450Z,98654.63
2022-08-17T05:30:55.892Z,98665.16
2022-08-17T05:33:25.088Z,98664.97
2022-08-17T05:35:55.672Z,98663.72
2022-08-17T05:38:25.753Z,98668.38
2022-08-17T05:40:55.705Z,98673.38
2022-08-17T05:43:25.628Z,98667.41
2022-08-17T05:46:01.260Z,98662.06
2022-08-17T05:48:35.275Z,98669.66
2022-08-17T05:51:27.416Z,98659.66
2022-08-17T05:54:03.585Z,98668.91
2022-08-17T05:56:56.688Z,98667.97
2022-08-17T05:59:32.734Z,98671.13
2022-08-17T06:02:06.845Z,98659.38
2022-08-17T06:04:48.193Z,98659.75
2022-08-17T06:07:21.868Z,98660.69
2022-08-17T06:09:54.703Z,98665.75
2022-08-17T06:12:37.645Z,98669.41
2022-08-17T06:15:23.860Z,98668.78
2022-08-17T06:17:56.365Z,98667.72
2022-08-17T06:20:26.568Z,98659.03
2022-08-17T06:22:59.486Z,98664.13
2022-08-17T06:25:34.490Z,98660.28
2022-08-17T06:28:06.822Z,98667.47
2022-08-17T06:31:00.854Z,98659.78
2022-08-17T06:33:34.221Z,98656.63
2022-08-17T06:36:11.232Z,98666.00
2022-08-17T06:38:54.761Z,98666.47
2022-08-17T06:41:31.476Z,98654.34
2022-08-17T06:44:43.151Z,98660.72
2022-08-17T06:47:08.959Z,98666.06
2022-08-17T06:49:44.283Z,98660.81
2022-08-17T06:52:42.315Z,98652.44
2022-08-17T06:55:18.760Z,98655.47
2022-08-17T06:57:50.793Z,98655.97
2022-08-17T07:00:23.173Z,98653.59
2022-08-17T07:02:55.933Z,98649.66
2022-08-17T07:05:27.471Z,98652.06
2022-08-17T07:08:05.090Z,98649.47
2022-08-17T07:10:38.897Z,98655.75
2022-08-17T07:13:26.340Z,98651.47
2022-08-17T07:16:05.557Z,98654.81
2022-08-17T07:18:34.195Z,98655.13
2022-08-17T07:21:17.502Z,98664.50
2022-08-17T07:24:01.697Z,98659.13
2022-08-17T07:26:29.546Z,98663.75
2022-08-17T07:28:57.264Z,98659.44
2022-08-17T07:31:27.558Z,98657.84
2022-08-17T07:34:06.871Z,98660.06
2022-08-17T07:36:35.294Z,98662.97
2022-08-17T07:39:05.134Z,98658.06
2022-08-17T07:41:53.186Z,98658.69
2022-08-17T07:44:26.424Z,98659.22
2022-08-17T07:47:13.555Z,98655.16
2022-08-17T07:49:44.635Z,98655.75
2022-08-17T07:52:51.217Z,98663.97
2022-08-17T07:55:27.712Z,98664.63
2022-08-17T07:57:57.825Z,98667.94
2022-08-17T08:00:31.807Z,98669.44
2022-08-17T08:03:27.093Z,98672.84
2022-08-17T08:06:01.178Z,98673.50
2022-08-17T08:08:34.144Z,98673.88
2022-08-17T08:11:08.112Z,98674.91
2022-08-17T08:13:40.419Z,98678.25
2022-08-17T08:16:22.596Z,98676.28
2022-08-17T08:18:56.942Z,98682.22
2022-08-17T08:21:34.314Z,98689.28
2022-08-17T08:24:18.393Z,98693.13
2022-08-17T08:26:55.516Z,98691.97
2022-08-17T08:29:30.911Z,98683.50
2022-08-17T08:32:06.657Z,98677.38
2022-08-17T08:35:01.658Z,98685.97
2022-08-17T08:37:43.466Z,98681.28
2022-08-17T08:40:32.348Z,98680.94
2022-08-17T08:43:17.773Z,98686.19
2022-08-17T08:45:56.591Z,98686.72
2022-08-17T08:48:56.244Z,98685.19
2022-08-17T08:51:41.011Z,98685.16
2022-08-17T08:54:26.501Z,98689.47
2022-08-17T08:57:23.236Z,98681.09
2022-08-17T09:00:06.918Z,98677.97
2022-08-17T09:03:04.772Z,98682.22
2022-08-17T09:05:38.214Z,98675.44
2022-08-17T09:08:21.587Z,98676.81
2022-08-17T09:10:58.610Z,98671.16
2022-08-17T09:13:39.856Z,98672.28
2022-08-17T09:16:15.182Z,98667.03
2022-08-17T09:19:00.613Z,98668.88
2022-08-17T09:21:47.908Z,98666.19
2022-08-17T09:24:24.010Z,98665.22
2022-08-17T09:26:58.905Z,98661.81
2022-08-17T09:29:29.847Z,98661.72
2022-08-17T09:31:59.694Z,98651.19
2022-08-17T09:34:34.685Z,98651.97
2022-08-17T09:37:19.736Z,98656.47
2022-08-17T09:39:56.218Z,98649.75
2022-08-17T09:42:31.203Z,98652.78
2022-08-17T09:45:10.694Z,98643.25
2022-08-17T09:47:45.515Z,98643.81
2022-08-17T09:51:05.378Z,98644.09
2022-08-17T09:53:09.629Z,98650.50
2022-08-17T09:55:51.215Z,98650.38
2022-08-17T09:58:25.672Z,98647.81
2022-08-17T10:01:02.710Z,98639.97
2022-08-17T10:03:59.409Z,98650.19
2022-08-17T10:06:31.693Z,98641.47
2022-08-17T10:09:08.330Z,98639.75
2022-08-17T10:12:02.304Z,98639.47
2022-08-17T10:14:36.326Z,98637.91
2022-08-17T10:17:15.390Z,98643.56
2022-08-17T10:19:50.099Z,98642.06
2022-08-17T10:22:54.781Z,98629.88
2022-08-17T10:25:54.576Z,98631.09
2022-08-17T10:28:30.455Z,98624.16
2022-08-17T10:31:33.700Z,98623.00
2022-08-17T10:34:07.808Z,98618.13
2022-08-17T10:36:48.024Z,98620.72
2022-08-17T10:39:24.758Z,98611.13
2022-08-17T10:41:57.183Z,98617.72
2022-08-17T10:44:41.408Z,98613.78
2022-08-17T10:47:11.589Z,98611.75
2022-08-17T10:49:47.522Z,98605.69
2022-08-17T10:52:48.640Z,98618.91
2022-08-17T10:55:20.299Z,98611.50
2022-08-17T10:57:50.634Z,98608.22
2022-08-17T11:00:58.849Z,98614.31
2022-08-17T11:03:27.747Z,98628.97
2022-08-17T11:06:12.710Z,98617.28
2022-08-17T11:09:06.028Z,98623.31
2022-08-17T11:11:50.908Z,98630.47
2022-08-17T11:14:34.851Z,98617.53
2022-08-17T11:17:21.631Z,98624.34
2022-08-17T11:20:08.694Z,98626.97
2022-08-17T11:22:58.007Z,98620.94
2022-08-17T11:25:34.966Z,98620.34
2022-08-17T11:28:08.680Z,98599.06
2022-08-17T11:30:48.664Z,98593.00
2022-08-17T11:34:02.270Z,98600.22
2022-08-17T11:36:41.367Z,98593.81
2022-08-17T11:39:33.695Z,98599.50
2022-08-17T11:42:06.342Z,98607.72
2022-08-17T11:44:45.793Z,98599.81
2022-08-17T11:48:02.229Z,98603.28
2022-08-17T11:51:05.952Z,98606.63
2022-08-17T11:56:59.138Z,98598.78
2022-08-17T11:59:55.255Z,98598.31
2022-08-17T12:02:47.396Z,98591.94
2022-08-17T12:05:33.988Z,98594.28
2022-08-17T12:08:15.905Z,98591.31
2022-08-17T12:10:55.264Z,98603.38
2022-08-17T12:13:23.837Z,98599.34
2022-08-17T12:16:02.266Z,98606.09
2022-08-17T12:18:35.762Z,98601.16
2022-08-17T12:21:24.321Z,98600.44
2022-08-17T12:24:03.235Z,98600.88
2022-08-17T12:26:33.550Z,98594.97
2022-08-17T12:29:02.971Z,98585.72
2022-08-17T12:31:35.502Z,98590.31
2022-08-17T12:34:04.339Z,98583.75
2022-08-17T12:36:34.032Z,98580.50
2022-08-17T12:39:13.066Z,98589.44
2022-08-17T12:41:45.339Z,98591.72
2022-08-17T12:44:17.082Z,98586.63
2022-08-17T12:46:53.199Z,98580.22
2022-08-17T12:49:25.187Z,98574.78
2022-08-17T12:52:01.158Z,98570.38
2022-08-17T12:54:39.037Z,98571.47
2022-08-17T12:57:13.375Z,98571.47
2022-08-17T12:59:44.013Z,98576.50
2022-08-17T13:02:22.743Z,98581.94
2022-08-17T13:04:50.456Z,98577.91
2022-08-17T13:07:35.153Z,98575.09
2022-08-17T13:10:05.298Z,98572.22
2022-08-17T13:12:35.953Z,98572.88
2022-08-17T13:15:03.999Z,98575.13
2022-08-17T13:17:35.627Z,98561.06
2022-08-17T13:20:06.212Z,98570.13
2022-08-17T13:22:33.870Z,98560.66
2022-08-17T13:25:07.411Z,98562.47
2022-08-17T13:27:35.110Z,98558.81
2022-08-17T13:30:08.915Z,98562.03
2022-08-17T13:32:43.734Z,98552.25
2022-08-17T13:35:39.492Z,98550.63
2022-08-17T13:38:09.709Z,98560.69
2022-08-17T13:40:44.149Z,98558.09
2022-08-17T13:43:12.945Z,98562.38
2022-08-17T13:45:51.644Z,98551.50
2022-08-17T13:48:28.914Z,98553.84
2022-08-17T13:51:08.593Z,98563.97
2022-08-17T13:53:52.103Z,98563.13
2022-08-17T13:56:37.140Z,98557.44
2022-08-17T13:59:09.781Z,98550.91
2022-08-17T14:01:40.105Z,98559.69
2022-08-17T14:04:09.917Z,98562.38
2022-08-17T14:06:53.825Z,98556.66
2022-08-17T14:09:24.521Z,98553.81
2022-08-17T14:11:55.056Z,98556.44
2022-08-17T14:14:23.572Z,98545.03
2022-08-17T14:16:51.477Z,98547.31
2022-08-17T14:19:19.213Z,98553.81
2022-08-17T14:21:47.835Z,98557.47
2022-08-17T14:24:21.019Z,98552.28
2022-08-17T14:26:48.710Z,98543.41
2022-08-17T14:29:17.568Z,98554.56
2022-08-17T14:31:53.393Z,98547.84
2022-08-17T14:34:22.943Z,98552.69
2022-08-17T14:36:50.736Z,98555.41
2022-08-17T14:39:19.286Z,98551.28
2022-08-17T14:41:47.540Z,98547.97
2022-08-17T14:44:17.111Z,98547.56
2022-08-17T14:46:45.996Z,98543.91
2022-08-17T14:49:16.069Z,98550.28
2022-08-17T14:51:44.647Z,98547.97
2022-08-17T14:54:33.189Z,98546.31
2022-08-17T14:57:09.359Z,98544.16
2022-08-17T14:59:53.396Z,98545.31
2022-08-17T15:02:30.251Z,98547.25
2022-08-17T15:05:01.746Z,98547.56
2022-08-17T15:07:30.929Z,98541.66
2022-08-17T15:09:58.870Z,98534.69
2022-08-17T15:12:32.219Z,98533.97
2022-08-17T15:15:04.690Z,98536.56
2022-08-17T15:17:45.000Z,98535.47
2022-08-17T15:20:15.737Z,98530.72
2022-08-17T15:22:45.066Z,98527.53
2022-08-17T15:25:13.245Z,98531.41
2022-08-17T15:27:40.815Z,98527.03
2022-08-17T15:30:11.689Z,98528.69
2022-08-17T15:32:41.353Z,98535.19
2022-08-17T15:35:27.330Z,98528.41
2022-08-17T15:37:56.599Z,98525.69
2022-08-17T15:40:25.034Z,98531.72
2022-08-17T15:42:52.666Z,98527.13
2022-08-17T15:45:24.907Z,98522.97
2022-08-17T15:47:53.124Z,98521.78
2022-08-17T15:50:20.847Z,98520.47
2022-08-17T15:52:54.700Z,98510.63
2022-08-17T15:55:24.234Z,98511.13
2022-08-17T15:57:53.030Z,98502.34
2022-08-17T16:00:23.948Z,98498.44
2022-08-17T16:03:46.395Z,98499.03
2022-08-17T16:05:40.763Z,98503.88
2022-08-17T16:08:10.836Z,98500.88
2022-08-17T16:10:38.510Z,98502.84
2022-08-17T16:13:06.097Z,98499.28
2022-08-17T16:15:56.779Z,98497.25
2022-08-17T16:18:27.378Z,98490.34
2022-08-17T16:20:55.214Z,98486.91
2022-08-17T16:23:23.042Z,98487.00
2022-08-17T16:25:53.202Z,98501.41
2022-08-17T16:28:27.488Z,98493.34
2022-08-17T16:31:24.729Z,98493.78
2022-08-17T16:34:16.427Z,98482.91
2022-08-17T16:36:41.068Z,98488.81
2022-08-17T16:39:21.273Z,98491.16
2022-08-17T16:41:50.322Z,98488.28
2022-08-17T16:44:22.074Z,98475.13
2022-08-17T16:46:51.138Z,98477.03
2022-08-17T16:49:25.770Z,98466.63
2022-08-17T16:52:05.182Z,98470.53
2022-08-17T16:54:33.421Z,98472.56
2022-08-17T16:57:01.156Z,98476.66
2022-08-17T16:59:31.381Z,98477.34
2022-08-17T17:02:10.695Z,98484.88
2022-08-17T17:04:44.198Z,98485.13
2022-08-17T17:07:35.231Z,98494.75
2022-08-17T17:10:08.370Z,98503.19
2022-08-17T17:13:03.774Z,98500.38
2022-08-17T17:15:34.603Z,98498.78
2022-08-17T17:18:06.968Z,98506.16
2022-08-17T17:20:45.776Z,98504.09
2022-08-17T17:23:28.988Z,98502.03
2022-08-17T17:26:04.008Z,98505.63
2022-08-17T17:28:43.346Z,98514.44
2022-08-17T17:31:16.818Z,98510.69
2022-08-17T17:33:48.860Z,98516.13
2022-08-17T17:36:25.180Z,98511.28
2022-08-17T17:38:55.199Z,98506.69
2022-08-17T17:41:29.092Z,98510.69
2022-08-17T17:44:03.025Z,98517.38
2022-08-17T17:46:35.137Z,98522.19
2022-08-17T17:49:05.891Z,98523.47
2022-08-17T17:52:09.202Z,98529.16
2022-08-17T17:54:39.986Z,98523.50
2022-08-17T17:57:17.640Z,98522.69
2022-08-17T17:59:57.489Z,98522.91
2022-08-17T18:02:52.580Z,98526.06
2022-08-17T18:05:58.404Z,98525.44
2022-08-17T18:08:44.258Z,98531.34
2022-08-17T18:11:24.682Z,98538.53
2022-08-17T18:14:06.478Z,98530.84
2022-08-17T18:16:35.428Z,98537.75
2022-08-17T18:19:02.967Z,98540.09
2022-08-17T18:21:37.851Z,98533.28
2022-08-17T18:24:07.751Z,98538.28
2022-08-17T18:26:45.408Z,98536.03
2022-08-17T18:29:22.042Z,98538.34
2022-08-17T18:31:52.493Z,98537.50
2022-08-17T18:34:45.771Z,98543.16
2022-08-17T18:37:27.426Z,98538.78
2022-08-17T18:39:55.046Z,98545.84
2022-08-17T18:42:27.178Z,98548.75
2022-08-17T18:44:55.853Z,98552.94
2022-08-17T18:47:25.850Z,98553.34
2022-08-17T18:49:57.629Z,98550.03
2022-08-17T18:52:29.544Z,98558.59
2022-08-17T18:55:12.810Z,98555.44
2022-08-17T18:57:44.097Z,98559.19
2022-08-17T19:00:14.647Z,98559.19
2022-08-17T19:02:52.277Z,98564.84
2022-08-17T19:05:35.273Z,98555.88
2022-08-17T19:08:21.345Z,98561.31
2022-08-17T19:10:52.372Z,98557.56
2022-08-17T19:13:24.667Z,98563.16
2022-08-17T19:16:11.611Z,98568.34
2022-08-17T19:18:47.331Z,98556.44
2022-08-17T19:21:20.561Z,98555.16
2022-08-17T19:23:55.141Z,98549.72
2022-08-17T19:26:50.586Z,98555.44
2022-08-17T19:29:19.496Z,98564.34
2022-08-17T19:31:50.210Z,98552.28
2022-08-17T19:34:29.919Z,98555.31
2022-08-17T19:37:06.871Z,98560.03
2022-08-17T19:39:51.859Z,98555.19
2022-08-17T19:42:33.879Z,98561.53
2022-08-17T19:45:08.482Z,98560.41
2022-08-17T19:47:54.778Z,98556.94
2022-08-17T19:50:41.337Z,98550.19
2022-08-17T19:53:20.164Z,98558.44
2022-08-17T19:55:58.117Z,98559.47
2022-08-17T19:58:38.745Z,98559.06
2022-08-17T20:01:13.182Z,98567.78
2022-08-17T20:03:52.844Z,98562.84
2022-08-17T20:06:22.449Z,98571.38
2022-08-17T20:08:59.153Z,98561.63
2022-08-17T20:11:34.670Z,98573.44
2022-08-17T20:14:08.424Z,98580.91
2022-08-17T20:16:36.001Z,98571.53
2022-08-17T20:19:08.775Z,98580.41
2022-08-17T20:21:43.728Z,98579.03
2022-08-17T20:24:20.895Z,98585.63
2022-08-17T20:26:58.412Z,98592.47
2022-08-17T20:29:39.803Z,98587.63
2022-08-17T20:32:26.710Z,98596.09
2022-08-17T20:35:27.246Z,98588.78
2022-08-17T20:38:02.047Z,98593.94
2022-08-17T20:40:34.010Z,98600.44
2022-08-17T20:43:51.418Z,98602.03
2022-08-17T20:46:40.704Z,98604.47
2022-08-17T20:49:24.980Z,98604.22
2022-08-17T20:52:01.449Z,98599.41
2022-08-17T20:54:44.229Z,98603.00
2022-08-17T20:57:47.291Z,98597.06
2022-08-17T21:00:41.841Z,98594.94
2022-08-17T21:03:50.105Z,98591.78
2022-08-17T21:06:21.647Z,98594.66
2022-08-17T21:08:54.206Z,98592.13
2022-08-17T21:11:56.808Z,98596.81
2022-08-17T21:14:56.145Z,98598.50
2022-08-17T21:17:41.811Z,98593.19
2022-08-17T21:20:27.028Z,98602.03
2022-08-17T21:23:13.455Z,98596.72
2022-08-17T21:26:03.341Z,98594.53
2022-08-17T21:29:00.861Z,98597.78
2022-08-17T21:31:34.323Z,98603.91
2022-08-17T21:34:26.509Z,98590.81
2022-08-17T21:36:56.771Z,98587.66
2022-08-17T21:39:33.202Z,98590.53
2022-08-17T21:42:01.363Z,98590.53
2022-08-17T21:44:34.781Z,98594.25
2022-08-17T21:47:20.170Z,98593.75
2022-08-17T21:49:48.152Z,98592.91
2022-08-17T21:52:19.329Z,98601.53
2022-08-17T21:54:52.129Z,98603.78
2022-08-17T21:57:23.981Z,98599.56
2022-08-17T21:59:54.434Z,98611.72
2022-08-17T22:02:25.833Z,98609.28
2022-08-17T22:04:58.840Z,98614.19
2022-08-17T22:07:40.663Z,98614.53
2022-08-17T22:10:27.827Z,98611.22
2022-08-17T22:13:16.593Z,98615.09
2022-08-17T22:15:47.457Z,98610.72
2022-08-17T22:18:20.078Z,98616.28
2022-08-17T22:20:53.373Z,98613.78
2022-08-17T22:23:46.999Z,98620.53
2022-08-17T22:26:16.887Z,98620.63
2022-08-17T22:28:46.648Z,98622.34
2022-08-17T22:31:16.727Z,98627.09
2022-08-17T22:33:47.865Z,98620.09
2022-08-17T22:36:24.477Z,98633.03
2022-08-17T22:38:56.291Z,98630.03
2022-08-17T22:41:35.430Z,98632.44
2022-08-17T22:44:20.316Z,98633.78
2022-08-17T22:47:03.678Z,98629.59
2022-08-17T22:49:34.202Z,98634.31
2022-08-17T22:52:21.953Z,98639.38
2022-08-17T22:55:18.068Z,98627.31
2022-08-17T22:58:05.013Z,98629.47
2022-08-17T23:00:38.225Z,98630.66
2022-08-17T23:03:12.110Z,98629.31
2022-08-17T23:05:41.882Z,98622.63
2022-08-17T23:08:11.262Z,98631.03
2022-08-17T23:10:41.268Z,98633.38
2022-08-17T23:13:11.856Z,98632.72
2022-08-17T23:15:41.204Z,98637.59
2022-08-17T23:18:08.608Z,98629.06
2022-08-17T23:20:38.180Z,98627.72
2022-08-17T23:23:07.590Z,98633.25
2022-08-17T23:25:35.568Z,98634.94
2022-08-17T23:28:05.509Z,98628.56
2022-08-17T23:30:34.542Z,98629.75
2022-08-17T23:33:03.204Z,98636.13
2022-08-17T23:35:39.167Z,98627.38
2022-08-17T23:38:08.148Z,98627.75
2022-08-17T23:40:35.575Z,98624.72
2022-08-17T23:43:06.049Z,98620.56
2022-08-17T23:45:45.034Z,98626.09
2022-08-17T23:48:12.489Z,98625.22
2022-08-17T23:50:55.311Z,98619.88
2022-08-17T23:53:25.025Z,98610.31
2022-08-17T23:56:03.984Z,98608.81
2022-08-17T23:58:39.645Z,98603.59
